createdAt,value
2023-01-09T00:00:03.578Z,0
2023-01-09T00:01:07.102Z,0
2023-01-09T00:02:09.988Z,0
2023-01-09T00:03:13.619Z,0
2023-01-09T00:04:16.833Z,0
2023-01-09T00:05:20.068Z,0
2023-01-09T00:06:23.594Z,0
2023-01-09T00:07:27.439Z,0
2023-01-09T00:08:30.851Z,0
2023-01-09T00:09:33.917Z,0
2023-01-09T00:10:37.204Z,0
2023-01-09T00:11:40.131Z,0
2023-01-09T00:12:43.231Z,0
2023-01-09T00:13:46.564Z,0
2023-01-09T00:14:49.408Z,0
2023-01-09T00:15:52.555Z,0
2023-01-09T00:16:56.090Z,0
2023-01-09T00:18:00.490Z,0
2023-01-09T00:19:03.199Z,0
2023-01-09T00:20:05.931Z,0
2023-01-09T00:21:08.493Z,0
2023-01-09T00:22:11.777Z,0
2023-01-09T00:23:15.623Z,0
2023-01-09T00:24:18.883Z,0
2023-01-09T00:25:22.754Z,0
2023-01-09T00:26:25.528Z,0
2023-01-09T00:27:29.121Z,0
2023-01-09T00:28:32.259Z,0
2023-01-09T00:29:35.699Z,0
2023-01-09T00:30:39.036Z,0
2023-01-09T00:31:42.500Z,0
2023-01-09T00:32:45.270Z,0
2023-01-09T00:33:48.411Z,0
2023-01-09T00:34:51.825Z,0
2023-01-09T00:35:55.035Z,0
2023-01-09T00:36:57.856Z,0
2023-01-09T00:38:16.199Z,0
2023-01-09T00:39:20.265Z,0
2023-01-09T00:40:23.316Z,0
2023-01-09T00:41:27.255Z,0
2023-01-09T00:42:29.963Z,0
2023-01-09T00:43:33.108Z,0
2023-01-09T00:44:36.674Z,0
2023-01-09T00:45:39.797Z,0
2023-01-09T00:46:43.394Z,0
2023-01-09T00:47:47.175Z,0
2023-01-09T00:48:49.354Z,0
2023-01-09T00:49:53.071Z,0
2023-01-09T00:50:55.709Z,0
2023-01-09T00:51:58.807Z,0
2023-01-09T00:53:01.894Z,0
2023-01-09T00:54:05.582Z,0
2023-01-09T00:55:09.077Z,0
2023-01-09T00:56:11.679Z,0
2023-01-09T00:57:14.202Z,0
2023-01-09T00:58:17.363Z,0
2023-01-09T00:59:20.128Z,0
2023-01-09T01:00:23.123Z,0
2023-01-09T01:01:26.249Z,0
2023-01-09T01:02:30.492Z,0
2023-01-09T01:03:33.976Z,0
2023-01-09T01:04:37.058Z,0
2023-01-09T01:05:39.798Z,0
2023-01-09T01:06:43.603Z,0
2023-01-09T01:07:46.400Z,0
2023-01-09T01:08:48.628Z,0
2023-01-09T01:09:52.330Z,0
2023-01-09T01:10:56.323Z,0
2023-01-09T01:11:59.049Z,0
2023-01-09T01:13:02.700Z,0
2023-01-09T01:14:05.478Z,0
2023-01-09T01:15:09.239Z,0
2023-01-09T01:16:12.687Z,0
2023-01-09T01:17:15.197Z,0
2023-01-09T01:18:18.628Z,0
2023-01-09T01:19:21.968Z,0
2023-01-09T01:20:24.957Z,0
2023-01-09T01:21:27.827Z,0
2023-01-09T01:22:30.281Z,0
2023-01-09T01:23:33.060Z,0
2023-01-09T01:24:36.121Z,0
2023-01-09T01:25:39.320Z,0
2023-01-09T01:26:43.506Z,0
2023-01-09T01:27:47.171Z,0
2023-01-09T01:28:49.633Z,0
2023-01-09T01:29:53.058Z,0
2023-01-09T01:30:55.839Z,0
2023-01-09T01:31:59.317Z,0
2023-01-09T01:33:01.780Z,0
2023-01-09T01:34:04.314Z,0
2023-01-09T01:35:07.583Z,0
2023-01-09T01:36:10.601Z,0
2023-01-09T01:37:13.616Z,0
2023-01-09T01:38:16.622Z,0
2023-01-09T01:39:19.970Z,0
2023-01-09T01:40:23.371Z,0
2023-01-09T01:41:26.781Z,0
2023-01-09T01:42:30.281Z,0
2023-01-09T01:43:33.373Z,0
2023-01-09T01:44:35.815Z,0
2023-01-09T01:45:38.812Z,0
2023-01-09T01:46:41.562Z,0
2023-01-09T01:47:44.634Z,0
2023-01-09T01:48:47.485Z,0
2023-01-09T01:49:51.165Z,0
2023-01-09T01:50:54.442Z,0
2023-01-09T01:51:57.536Z,0
2023-01-09T01:53:00.993Z,0
2023-01-09T01:54:04.469Z,0
2023-01-09T01:55:07.873Z,0
2023-01-09T01:56:10.924Z,0
2023-01-09T01:57:14.972Z,0
2023-01-09T01:58:18.769Z,0
2023-01-09T01:59:21.752Z,0
2023-01-09T02:00:24.225Z,0
2023-01-09T02:01:27.174Z,0
2023-01-09T02:02:31.414Z,0
2023-01-09T02:03:34.374Z,0
2023-01-09T02:04:37.770Z,0
2023-01-09T02:05:40.890Z,0
2023-01-09T02:06:43.392Z,0
2023-01-09T02:07:46.203Z,0
2023-01-09T02:08:48.710Z,0
2023-01-09T02:09:51.700Z,0
2023-01-09T02:10:54.767Z,0
2023-01-09T02:11:58.180Z,0
2023-01-09T02:13:01.955Z,0
2023-01-09T02:14:05.695Z,0
2023-01-09T02:15:08.826Z,0
2023-01-09T02:16:11.992Z,0
2023-01-09T02:17:15.421Z,0
2023-01-09T02:18:18.934Z,0
2023-01-09T02:19:21.642Z,0
2023-01-09T02:20:24.168Z,0
2023-01-09T02:21:26.906Z,0
2023-01-09T02:22:29.419Z,0
2023-01-09T02:23:32.483Z,0
2023-01-09T02:24:36.107Z,0
2023-01-09T02:25:39.557Z,0
2023-01-09T02:26:42.557Z,0
2023-01-09T02:27:45.930Z,0
2023-01-09T02:28:49.105Z,0
2023-01-09T02:29:52.908Z,0
2023-01-09T02:30:55.679Z,0
2023-01-09T02:31:58.754Z,0
2023-01-09T02:33:02.161Z,0
2023-01-09T02:34:05.681Z,0
2023-01-09T02:35:08.663Z,0
2023-01-09T02:36:12.048Z,0
2023-01-09T02:37:14.914Z,0
2023-01-09T02:38:18.003Z,0
2023-01-09T02:39:20.787Z,0
2023-01-09T02:40:24.560Z,0
2023-01-09T02:41:27.985Z,0
2023-01-09T02:42:31.052Z,0
2023-01-09T02:43:33.772Z,0
2023-01-09T02:44:37.323Z,0
2023-01-09T02:45:41.941Z,0
2023-01-09T02:46:44.964Z,0
2023-01-09T02:47:48.262Z,0
2023-01-09T02:48:51.226Z,0
2023-01-09T02:49:54.412Z,0
2023-01-09T02:50:57.160Z,0
2023-01-09T02:52:00.601Z,0
2023-01-09T02:53:03.865Z,0
2023-01-09T02:54:06.869Z,0
2023-01-09T02:55:10.322Z,0
2023-01-09T02:56:13.361Z,0
2023-01-09T02:57:17.375Z,0
2023-01-09T02:58:19.358Z,0
2023-01-09T02:59:22.693Z,0
2023-01-09T03:00:25.550Z,0
2023-01-09T03:01:29.421Z,0
2023-01-09T03:02:33.098Z,0
2023-01-09T03:03:36.426Z,0
2023-01-09T03:04:39.821Z,0
2023-01-09T03:05:42.383Z,0
2023-01-09T03:06:45.715Z,0
2023-01-09T03:07:48.990Z,0
2023-01-09T03:08:52.480Z,0
2023-01-09T03:09:55.845Z,0
2023-01-09T03:10:59.180Z,0
2023-01-09T03:12:01.706Z,0
2023-01-09T03:13:05.054Z,0
2023-01-09T03:14:08.201Z,0
2023-01-09T03:15:11.484Z,0
2023-01-09T03:16:14.989Z,0
2023-01-09T03:17:19.036Z,0
2023-01-09T03:18:21.557Z,0
2023-01-09T03:19:24.677Z,0
2023-01-09T03:20:27.102Z,0
2023-01-09T03:21:30.287Z,0
2023-01-09T03:22:33.316Z,0
2023-01-09T03:23:36.211Z,0
2023-01-09T03:24:39.474Z,0
2023-01-09T03:25:42.159Z,0
2023-01-09T03:26:44.936Z,0
2023-01-09T03:27:48.298Z,0
2023-01-09T03:28:51.062Z,0
2023-01-09T03:29:54.080Z,0
2023-01-09T03:30:56.878Z,0
2023-01-09T03:32:00.130Z,0
2023-01-09T03:33:03.579Z,0
2023-01-09T03:34:06.395Z,0
2023-01-09T03:35:09.681Z,0
2023-01-09T03:36:13.193Z,0
2023-01-09T03:37:16.599Z,0
2023-01-09T03:38:20.305Z,0
2023-01-09T03:39:23.391Z,0
2023-01-09T03:40:27.117Z,0
2023-01-09T03:41:30.255Z,0
2023-01-09T03:42:33.892Z,0
2023-01-09T03:43:37.611Z,0
2023-01-09T03:44:40.351Z,0
2023-01-09T03:45:42.928Z,0
2023-01-09T03:46:46.551Z,0
2023-01-09T03:47:51.710Z,0
2023-01-09T03:48:56.617Z,0
2023-01-09T03:49:59.879Z,0
2023-01-09T03:51:03.266Z,0
2023-01-09T03:52:07.307Z,0
2023-01-09T03:53:10.628Z,0
2023-01-09T03:54:14.373Z,0
2023-01-09T03:55:17.368Z,0
2023-01-09T03:56:20.500Z,0
2023-01-09T03:57:23.777Z,0
2023-01-09T03:58:27.126Z,0
2023-01-09T03:59:30.126Z,0
2023-01-09T04:00:33.491Z,0
2023-01-09T04:01:36.413Z,0
2023-01-09T04:02:40.193Z,0
2023-01-09T04:03:43.435Z,0
2023-01-09T04:04:47.153Z,0
2023-01-09T04:05:50.497Z,0
2023-01-09T04:06:53.586Z,0
2023-01-09T04:07:56.314Z,0
2023-01-09T04:08:59.235Z,0
2023-01-09T04:10:02.209Z,0
2023-01-09T04:11:05.209Z,0
2023-01-09T04:12:08.708Z,0
2023-01-09T04:13:11.478Z,0
2023-01-09T04:14:13.373Z,0
2023-01-09T04:15:16.366Z,0
2023-01-09T04:16:19.355Z,0
2023-01-09T04:17:23.044Z,0
2023-01-09T04:18:26.824Z,0
2023-01-09T04:19:30.315Z,0
2023-01-09T04:20:34.028Z,0
2023-01-09T04:21:36.588Z,0
2023-01-09T04:22:39.853Z,0
2023-01-09T04:23:43.571Z,0
2023-01-09T04:24:46.703Z,0
2023-01-09T04:25:49.784Z,0
2023-01-09T04:26:53.228Z,0
2023-01-09T04:27:56.251Z,0
2023-01-09T04:28:59.413Z,0
2023-01-09T04:30:02.766Z,0
2023-01-09T04:31:05.955Z,0
2023-01-09T04:32:09.235Z,0
2023-01-09T04:33:11.947Z,0
2023-01-09T04:34:15.595Z,0
2023-01-09T04:35:19.012Z,0
2023-01-09T04:36:22.228Z,0
2023-01-09T04:37:25.599Z,0
2023-01-09T04:38:28.601Z,0
2023-01-09T04:39:32.249Z,0
2023-01-09T04:40:35.739Z,0
2023-01-09T04:41:39.126Z,0
2023-01-09T04:42:42.310Z,0
2023-01-09T04:43:44.741Z,0
2023-01-09T04:44:47.483Z,0
2023-01-09T04:45:50.702Z,0
2023-01-09T04:46:54.470Z,0
2023-01-09T04:47:57.345Z,0
2023-01-09T04:49:00.062Z,0
2023-01-09T04:50:03.318Z,0
2023-01-09T04:51:07.153Z,0
2023-01-09T04:52:10.623Z,0
2023-01-09T04:53:13.681Z,0
2023-01-09T04:54:16.766Z,0
2023-01-09T04:55:19.558Z,0
2023-01-09T04:56:22.604Z,0
2023-01-09T04:57:25.953Z,0
2023-01-09T04:58:28.191Z,0
2023-01-09T04:59:31.560Z,0
2023-01-09T05:00:34.622Z,0
2023-01-09T05:01:37.788Z,0
2023-01-09T05:02:41.698Z,0
2023-01-09T05:03:45.742Z,0
2023-01-09T05:04:48.365Z,0
2023-01-09T05:05:51.823Z,0
2023-01-09T05:06:55.632Z,0
2023-01-09T05:07:59.412Z,0
2023-01-09T05:09:02.455Z,0
2023-01-09T05:10:05.335Z,0
2023-01-09T05:11:08.120Z,0
2023-01-09T05:12:11.807Z,0
2023-01-09T05:13:14.235Z,0
2023-01-09T05:14:17.291Z,0
2023-01-09T05:15:20.269Z,0
2023-01-09T05:16:23.028Z,0
2023-01-09T05:17:26.331Z,0
2023-01-09T05:18:29.233Z,0
2023-01-09T05:19:32.573Z,0
2023-01-09T05:20:35.570Z,0
2023-01-09T05:21:38.702Z,0
2023-01-09T05:22:42.741Z,0
2023-01-09T05:23:46.522Z,0
2023-01-09T05:24:49.872Z,0
2023-01-09T05:25:53.036Z,0
2023-01-09T05:26:55.829Z,0
2023-01-09T05:27:58.857Z,0
2023-01-09T05:29:02.057Z,0
2023-01-09T05:30:05.260Z,0
2023-01-09T05:31:07.719Z,0
2023-01-09T05:32:09.878Z,0
2023-01-09T05:33:12.985Z,0
2023-01-09T05:34:15.703Z,0
2023-01-09T05:35:18.767Z,0
2023-01-09T05:36:21.758Z,0
2023-01-09T05:37:25.168Z,0
2023-01-09T05:38:28.282Z,0
2023-01-09T05:39:32.005Z,0
2023-01-09T05:40:40.220Z,0
2023-01-09T05:41:43.199Z,0
2023-01-09T05:42:46.203Z,0
2023-01-09T05:43:49.005Z,0
2023-01-09T05:44:51.974Z,0
2023-01-09T05:45:54.749Z,0
2023-01-09T05:46:58.232Z,0
2023-01-09T05:48:04.313Z,0
2023-01-09T05:49:07.140Z,0
2023-01-09T05:50:09.295Z,0
2023-01-09T05:51:12.006Z,0
2023-01-09T05:52:15.114Z,0
2023-01-09T05:53:17.698Z,0
2023-01-09T05:54:20.559Z,0
2023-01-09T05:55:24.050Z,0
2023-01-09T05:56:27.045Z,0
2023-01-09T05:57:30.788Z,0
2023-01-09T05:58:34.117Z,0
2023-01-09T05:59:37.538Z,0
2023-01-09T06:00:40.948Z,0
2023-01-09T06:01:44.094Z,0
2023-01-09T06:02:47.139Z,0
2023-01-09T06:03:50.514Z,0
2023-01-09T06:04:53.892Z,0
2023-01-09T06:05:57.349Z,0
2023-01-09T06:07:00.444Z,0
2023-01-09T06:08:03.424Z,0
2023-01-09T06:09:06.544Z,0
2023-01-09T06:10:09.822Z,0
2023-01-09T06:11:13.499Z,0
2023-01-09T06:12:17.483Z,0
2023-01-09T06:13:20.643Z,0
2023-01-09T06:14:23.654Z,0
2023-01-09T06:15:27.426Z,0
2023-01-09T06:16:30.757Z,0
2023-01-09T06:17:33.616Z,0
2023-01-09T06:18:36.750Z,0
2023-01-09T06:19:40.463Z,0
2023-01-09T06:20:43.946Z,0
2023-01-09T06:21:46.731Z,0
2023-01-09T06:22:49.780Z,0
2023-01-09T06:23:53.132Z,0
2023-01-09T06:24:56.110Z,0
2023-01-09T06:25:59.831Z,0
2023-01-09T06:27:03.390Z,0
2023-01-09T06:28:06.099Z,0
2023-01-09T06:29:09.365Z,0
2023-01-09T06:30:12.509Z,0
2023-01-09T06:31:15.393Z,0
2023-01-09T06:32:18.542Z,0
2023-01-09T06:33:21.537Z,0
2023-01-09T06:34:24.581Z,0
2023-01-09T06:35:27.686Z,0
2023-01-09T06:36:30.988Z,0
2023-01-09T06:37:33.541Z,0
2023-01-09T06:38:36.615Z,0
2023-01-09T06:39:38.842Z,0
2023-01-09T06:40:41.415Z,0
2023-01-09T06:41:46.512Z,0
2023-01-09T06:42:52.330Z,0
2023-01-09T06:43:55.601Z,0
2023-01-09T06:44:58.757Z,0
2023-01-09T06:46:01.685Z,0
2023-01-09T06:47:05.079Z,0
2023-01-09T06:48:08.057Z,0
2023-01-09T06:49:11.073Z,0
2023-01-09T06:50:14.223Z,0
2023-01-09T06:51:17.681Z,0
2023-01-09T06:52:21.055Z,0
2023-01-09T06:53:24.033Z,0
2023-01-09T06:54:28.747Z,0
2023-01-09T06:55:32.561Z,0
2023-01-09T06:56:35.555Z,0
2023-01-09T06:57:38.727Z,0
2023-01-09T06:58:42.579Z,0
2023-01-09T06:59:45.944Z,0
2023-01-09T07:00:49.217Z,0
2023-01-09T07:01:52.371Z,0
2023-01-09T07:02:56.196Z,4
2023-01-09T07:03:58.979Z,4
2023-01-09T07:05:02.059Z,4
2023-01-09T07:06:04.878Z,0
2023-01-09T07:07:07.878Z,4
2023-01-09T07:08:10.976Z,4
2023-01-09T07:09:14.139Z,4
2023-01-09T07:10:17.467Z,8
2023-01-09T07:11:20.455Z,8
2023-01-09T07:12:23.188Z,8
2023-01-09T07:13:26.995Z,8
2023-01-09T07:14:30.885Z,8
2023-01-09T07:15:34.270Z,12
2023-01-09T07:16:37.795Z,12
2023-01-09T07:17:41.202Z,12
2023-01-09T07:18:44.515Z,16
2023-01-09T07:19:47.885Z,16
2023-01-09T07:20:50.601Z,16
2023-01-09T07:21:54.277Z,16
2023-01-09T07:22:56.777Z,16
2023-01-09T07:23:58.997Z,24
2023-01-09T07:25:01.448Z,24
2023-01-09T07:26:04.846Z,28
2023-01-09T07:27:07.979Z,28
2023-01-09T07:28:10.698Z,32
2023-01-09T07:29:14.832Z,32
2023-01-09T07:30:18.170Z,36
2023-01-09T07:31:21.420Z,36
2023-01-09T07:32:25.468Z,40
2023-01-09T07:33:28.468Z,40
2023-01-09T07:34:32.151Z,48
2023-01-09T07:35:35.862Z,48
2023-01-09T07:36:38.913Z,48
2023-01-09T07:37:41.713Z,56
2023-01-09T07:38:45.057Z,56
2023-01-09T07:39:47.532Z,48
2023-01-09T07:40:50.345Z,60
2023-01-09T07:41:53.490Z,84
2023-01-09T07:42:56.900Z,104
2023-01-09T07:44:00.017Z,124
2023-01-09T07:45:03.561Z,128
2023-01-09T07:46:07.078Z,132
2023-01-09T07:47:10.698Z,140
2023-01-09T07:48:14.014Z,180
2023-01-09T07:49:17.089Z,196
2023-01-09T07:50:19.648Z,212
2023-01-09T07:51:23.050Z,260
2023-01-09T07:52:25.830Z,288
2023-01-09T07:53:28.850Z,320
2023-01-09T07:54:32.296Z,340
2023-01-09T07:55:35.753Z,332
2023-01-09T07:56:39.111Z,352
2023-01-09T07:57:42.340Z,388
2023-01-09T07:58:45.336Z,416
2023-01-09T07:59:48.750Z,448
2023-01-09T08:00:52.146Z,480
2023-01-09T08:01:56.252Z,528
2023-01-09T08:03:00.340Z,564
2023-01-09T08:04:04.521Z,620
2023-01-09T08:05:08.103Z,664
2023-01-09T08:06:11.236Z,664
2023-01-09T08:07:14.803Z,612
2023-01-09T08:08:17.773Z,588
2023-01-09T08:09:21.372Z,616
2023-01-09T08:10:24.715Z,688
2023-01-09T08:11:28.085Z,680
2023-01-09T08:12:31.103Z,672
2023-01-09T08:13:34.175Z,640
2023-01-09T08:14:37.545Z,644
2023-01-09T08:15:40.616Z,568
2023-01-09T08:16:44.705Z,664
2023-01-09T08:17:48.181Z,800
2023-01-09T08:18:52.171Z,736
2023-01-09T08:19:55.121Z,604
2023-01-09T08:20:58.768Z,500
2023-01-09T08:22:01.638Z,460
2023-01-09T08:23:04.736Z,416
2023-01-09T08:24:07.818Z,428
2023-01-09T08:25:12.334Z,564
2023-01-09T08:26:16.016Z,620
2023-01-09T08:27:19.364Z,696
2023-01-09T08:28:22.647Z,672
2023-01-09T08:29:26.312Z,752
2023-01-09T08:30:29.843Z,748
2023-01-09T08:31:32.991Z,848
2023-01-09T08:32:36.908Z,1160
2023-01-09T08:33:41.068Z,1120
2023-01-09T08:34:44.536Z,1056
2023-01-09T08:35:48.244Z,1160
2023-01-09T08:36:51.637Z,1252
2023-01-09T08:37:55.087Z,1340
2023-01-09T08:38:57.869Z,1348
2023-01-09T08:40:00.948Z,1236
2023-01-09T08:41:04.385Z,1548
2023-01-09T08:42:07.395Z,1808
2023-01-09T08:43:10.520Z,1848
2023-01-09T08:44:14.154Z,2196
2023-01-09T08:45:17.510Z,2184
2023-01-09T08:46:20.644Z,2112
2023-01-09T08:47:23.734Z,1896
2023-01-09T08:48:27.175Z,1808
2023-01-09T08:49:30.742Z,1584
2023-01-09T08:50:34.097Z,1480
2023-01-09T08:51:37.311Z,1396
2023-01-09T08:52:40.424Z,1368
2023-01-09T08:53:43.483Z,1352
2023-01-09T08:54:46.209Z,1244
2023-01-09T08:55:48.799Z,1132
2023-01-09T08:56:51.570Z,1164
2023-01-09T08:57:54.631Z,1204
2023-01-09T08:58:57.892Z,1688
2023-01-09T09:00:00.428Z,1948
2023-01-09T09:01:03.906Z,2036
2023-01-09T09:02:07.251Z,1928
2023-01-09T09:03:11.264Z,1900
2023-01-09T09:04:15.093Z,2452
2023-01-09T09:05:18.889Z,2596
2023-01-09T09:06:21.734Z,2560
2023-01-09T09:07:24.771Z,2640
2023-01-09T09:08:28.587Z,4172
2023-01-09T09:09:32.363Z,4504
2023-01-09T09:10:35.463Z,3692
2023-01-09T09:11:38.886Z,3728
2023-01-09T09:12:41.881Z,4144
2023-01-09T09:13:44.267Z,3736
2023-01-09T09:14:46.470Z,3344
2023-01-09T09:15:50.237Z,3444
2023-01-09T09:16:53.526Z,3448
2023-01-09T09:17:55.692Z,3068
2023-01-09T09:18:59.143Z,2488
2023-01-09T09:20:02.431Z,2076
2023-01-09T09:21:06.173Z,1832
2023-01-09T09:22:11.567Z,1816
2023-01-09T09:23:14.675Z,2024
2023-01-09T09:24:17.384Z,2168
2023-01-09T09:25:21.147Z,2180
2023-01-09T09:26:25.221Z,2480
2023-01-09T09:27:28.296Z,2592
2023-01-09T09:28:31.681Z,2912
2023-01-09T09:29:35.385Z,3028
2023-01-09T09:30:39.023Z,3296
2023-01-09T09:31:42.700Z,3412
2023-01-09T09:32:45.789Z,3340
2023-01-09T09:33:49.551Z,3144
2023-01-09T09:34:52.607Z,3328
2023-01-09T09:35:56.686Z,3720
2023-01-09T09:37:00.493Z,4348
2023-01-09T09:38:05.453Z,5460
2023-01-09T09:39:08.825Z,8584
2023-01-09T09:40:18.220Z,12160
2023-01-09T09:41:22.657Z,13748
2023-01-09T09:42:26.264Z,14804
2023-01-09T09:43:29.907Z,13604
2023-01-09T09:44:33.172Z,14888
2023-01-09T09:45:36.424Z,14488
2023-01-09T09:46:39.516Z,11744
2023-01-09T09:47:43.966Z,9040
2023-01-09T09:48:47.075Z,11208
2023-01-09T09:49:50.785Z,10892
2023-01-09T09:50:53.860Z,9200
2023-01-09T09:51:56.484Z,7176
2023-01-09T09:52:59.990Z,7396
2023-01-09T09:54:03.728Z,7552
2023-01-09T09:55:07.488Z,8916
2023-01-09T09:56:10.287Z,7840
2023-01-09T09:57:13.448Z,8068
2023-01-09T09:58:17.095Z,9020
2023-01-09T09:59:20.854Z,8844
2023-01-09T10:00:24.601Z,9360
2023-01-09T10:01:28.627Z,8792
2023-01-09T10:02:32.124Z,7220
2023-01-09T10:03:35.583Z,8380
2023-01-09T10:04:40.093Z,7908
2023-01-09T10:05:43.797Z,7064
2023-01-09T10:06:46.792Z,7736
2023-01-09T10:07:50.560Z,5860
2023-01-09T10:08:54.057Z,5488
2023-01-09T10:09:56.847Z,6636
2023-01-09T10:11:00.655Z,6416
2023-01-09T10:12:03.660Z,6600
2023-01-09T10:13:06.553Z,5616
2023-01-09T10:14:22.750Z,4676
2023-01-09T10:15:28.269Z,4880
2023-01-09T10:16:31.117Z,3620
2023-01-09T10:17:34.474Z,4124
2023-01-09T10:18:38.124Z,4548
2023-01-09T10:19:41.251Z,5044
2023-01-09T10:20:45.033Z,6664
2023-01-09T10:21:47.789Z,8316
2023-01-09T10:22:51.498Z,10260
2023-01-09T10:23:54.974Z,8868
2023-01-09T10:24:58.916Z,6568
2023-01-09T10:26:02.152Z,8340
2023-01-09T10:27:05.342Z,7756
2023-01-09T10:28:09.102Z,5208
2023-01-09T10:29:12.535Z,3464
2023-01-09T10:30:15.088Z,2936
2023-01-09T10:31:18.526Z,3676
2023-01-09T10:32:22.887Z,3248
2023-01-09T10:33:26.339Z,2964
2023-01-09T10:34:29.813Z,2308
2023-01-09T10:35:46.683Z,2100
2023-01-09T10:36:51.290Z,2312
2023-01-09T10:37:54.523Z,2412
2023-01-09T10:38:57.718Z,2804
2023-01-09T10:40:01.861Z,4052
2023-01-09T10:41:04.944Z,7408
2023-01-09T10:42:07.939Z,12284
2023-01-09T10:43:10.938Z,11892
2023-01-09T10:44:14.032Z,16140
2023-01-09T10:45:18.109Z,24064
2023-01-09T10:46:21.976Z,32224
2023-01-09T10:47:26.561Z,58976
2023-01-09T10:48:29.668Z,78784
2023-01-09T10:49:32.822Z,29568
2023-01-09T10:50:36.089Z,78720
2023-01-09T10:51:38.598Z,16600
2023-01-09T10:52:41.699Z,13768
2023-01-09T10:53:44.215Z,12340
2023-01-09T10:54:48.242Z,11364
2023-01-09T10:55:52.461Z,7920
2023-01-09T10:56:56.141Z,9052
2023-01-09T10:57:59.491Z,9036
2023-01-09T10:59:03.511Z,6704
2023-01-09T11:00:06.052Z,5824
2023-01-09T11:01:09.826Z,6164
2023-01-09T11:02:13.165Z,5524
2023-01-09T11:03:16.357Z,8080
2023-01-09T11:04:19.785Z,27264
2023-01-09T11:05:23.027Z,28416
2023-01-09T11:06:27.086Z,20544
2023-01-09T11:07:30.360Z,15532
2023-01-09T11:08:33.139Z,11988
2023-01-09T11:09:36.429Z,8080
2023-01-09T11:10:40.161Z,8852
2023-01-09T11:11:43.338Z,9912
2023-01-09T11:12:46.427Z,10584
2023-01-09T11:13:49.248Z,7756
2023-01-09T11:14:52.631Z,6676
2023-01-09T11:15:56.021Z,5040
2023-01-09T11:16:59.910Z,5692
2023-01-09T11:18:03.255Z,5400
2023-01-09T11:19:06.403Z,5188
2023-01-09T11:20:09.408Z,7424
2023-01-09T11:21:16.044Z,8416
2023-01-09T11:22:19.778Z,17388
2023-01-09T11:23:23.138Z,19808
2023-01-09T11:24:26.648Z,18528
2023-01-09T11:25:29.489Z,18688
2023-01-09T11:26:33.039Z,18848
2023-01-09T11:27:36.764Z,72736
2023-01-09T11:28:40.158Z,24320
2023-01-09T11:29:43.613Z,31520
2023-01-09T11:30:46.628Z,16920
2023-01-09T11:31:50.195Z,12552
2023-01-09T11:32:53.679Z,14328
2023-01-09T11:33:56.676Z,13608
2023-01-09T11:35:00.074Z,15400
2023-01-09T11:36:03.714Z,24288
2023-01-09T11:37:06.974Z,14864
2023-01-09T11:38:10.771Z,10696
2023-01-09T11:39:14.126Z,9384
2023-01-09T11:40:17.334Z,9120
2023-01-09T11:41:20.978Z,8696
2023-01-09T11:42:24.469Z,9644
2023-01-09T11:43:28.581Z,11672
2023-01-09T11:44:31.908Z,12044
2023-01-09T11:45:35.617Z,11592
2023-01-09T11:46:38.779Z,23328
2023-01-09T11:47:42.171Z,21600
2023-01-09T11:48:45.200Z,19008
2023-01-09T11:49:51.151Z,23616
2023-01-09T11:50:53.985Z,26624
2023-01-09T11:51:56.993Z,15564
2023-01-09T11:52:59.693Z,13580
2023-01-09T11:54:02.153Z,11320
2023-01-09T11:55:05.883Z,11044
2023-01-09T11:56:08.883Z,12080
2023-01-09T11:57:11.706Z,12200
2023-01-09T11:58:15.805Z,11816
2023-01-09T11:59:19.709Z,11612
2023-01-09T12:00:23.432Z,20320
2023-01-09T12:01:26.501Z,30368
2023-01-09T12:02:29.758Z,76096
2023-01-09T12:03:33.130Z,81984
2023-01-09T12:04:36.214Z,76000
2023-01-09T12:05:39.645Z,12432
2023-01-09T12:06:43.047Z,11344
2023-01-09T12:07:46.758Z,10540
2023-01-09T12:08:50.215Z,24032
2023-01-09T12:09:53.712Z,11956
2023-01-09T12:10:57.468Z,10924
2023-01-09T12:12:01.089Z,12748
2023-01-09T12:13:04.794Z,12816
2023-01-09T12:14:08.815Z,9304
2023-01-09T12:15:11.975Z,8204
2023-01-09T12:16:14.871Z,6924
2023-01-09T12:17:18.689Z,5288
2023-01-09T12:18:21.971Z,4432
2023-01-09T12:19:25.154Z,3980
2023-01-09T12:20:28.866Z,3984
2023-01-09T12:21:31.934Z,4592
2023-01-09T12:22:35.064Z,5348
2023-01-09T12:23:38.359Z,5268
2023-01-09T12:24:41.609Z,6704
2023-01-09T12:25:44.603Z,7720
2023-01-09T12:26:48.310Z,6960
2023-01-09T12:27:51.417Z,5628
2023-01-09T12:28:54.863Z,5988
2023-01-09T12:29:58.092Z,7312
2023-01-09T12:31:01.915Z,8348
2023-01-09T12:32:05.576Z,8456
2023-01-09T12:33:09.207Z,8312
2023-01-09T12:34:12.929Z,8600
2023-01-09T12:35:16.590Z,8060
2023-01-09T12:36:19.359Z,8724
2023-01-09T12:37:23.035Z,8600
2023-01-09T12:38:27.112Z,8980
2023-01-09T12:39:30.721Z,7680
2023-01-09T12:40:33.477Z,5276
2023-01-09T12:41:36.581Z,6668
2023-01-09T12:42:39.723Z,5776
2023-01-09T12:43:42.442Z,5680
2023-01-09T12:44:45.496Z,5292
2023-01-09T12:45:48.987Z,5264
2023-01-09T12:46:53.463Z,5228
2023-01-09T12:47:56.485Z,4312
2023-01-09T12:48:59.369Z,4560
2023-01-09T12:50:02.613Z,5020
2023-01-09T12:51:05.968Z,4732
2023-01-09T12:52:09.091Z,4840
2023-01-09T12:53:12.747Z,4332
2023-01-09T12:54:16.508Z,3628
2023-01-09T12:55:19.294Z,3468
2023-01-09T12:56:22.405Z,3432
2023-01-09T12:57:26.137Z,3880
2023-01-09T12:58:28.908Z,4132
2023-01-09T12:59:32.193Z,3888
2023-01-09T13:00:35.919Z,3800
2023-01-09T13:01:39.723Z,3348
2023-01-09T13:02:43.381Z,3240
2023-01-09T13:03:46.829Z,3000
2023-01-09T13:04:50.820Z,2840
2023-01-09T13:05:54.909Z,3128
2023-01-09T13:06:58.937Z,3016
2023-01-09T13:08:02.826Z,3100
2023-01-09T13:09:05.975Z,3052
2023-01-09T13:10:09.456Z,3104
2023-01-09T13:11:20.154Z,3504
2023-01-09T13:12:24.508Z,3916
2023-01-09T13:13:27.908Z,4552
2023-01-09T13:14:31.143Z,4840
2023-01-09T13:15:34.801Z,4304
2023-01-09T13:16:37.847Z,5116
2023-01-09T13:17:42.046Z,5592
2023-01-09T13:18:46.368Z,4660
2023-01-09T13:19:49.493Z,4572
2023-01-09T13:20:53.182Z,4264
2023-01-09T13:21:56.981Z,4668
2023-01-09T13:23:00.154Z,5680
2023-01-09T13:24:03.522Z,5836
2023-01-09T13:25:06.306Z,5728
2023-01-09T13:26:09.319Z,6232
2023-01-09T13:27:12.797Z,7636
2023-01-09T13:28:16.504Z,7328
2023-01-09T13:29:20.569Z,6824
2023-01-09T13:30:23.842Z,6836
2023-01-09T13:31:26.879Z,6136
2023-01-09T13:32:30.579Z,5360
2023-01-09T13:33:34.733Z,4188
2023-01-09T13:34:38.330Z,4152
2023-01-09T13:35:41.470Z,4360
2023-01-09T13:36:44.873Z,4000
2023-01-09T13:37:48.322Z,3476
2023-01-09T13:38:51.501Z,3508
2023-01-09T13:39:54.595Z,3784
2023-01-09T13:40:57.999Z,3352
2023-01-09T13:42:01.121Z,2928
2023-01-09T13:43:03.610Z,2908
2023-01-09T13:44:07.300Z,2852
2023-01-09T13:45:10.400Z,2536
2023-01-09T13:46:14.598Z,2588
2023-01-09T13:47:18.043Z,3128
2023-01-09T13:48:21.551Z,4180
2023-01-09T13:49:24.897Z,5324
2023-01-09T13:50:27.753Z,5648
2023-01-09T13:51:31.214Z,3728
2023-01-09T13:52:34.667Z,3472
2023-01-09T13:53:37.821Z,3368
2023-01-09T13:54:41.278Z,3376
2023-01-09T13:55:44.405Z,3360
2023-01-09T13:56:47.628Z,3276
2023-01-09T13:57:51.042Z,3272
2023-01-09T13:58:54.711Z,3380
2023-01-09T13:59:57.778Z,3448
2023-01-09T14:01:01.564Z,3320
2023-01-09T14:02:05.683Z,3144
2023-01-09T14:03:08.750Z,3052
2023-01-09T14:04:13.405Z,2960
2023-01-09T14:05:17.953Z,2796
2023-01-09T14:06:21.755Z,2732
2023-01-09T14:07:24.863Z,2820
2023-01-09T14:08:28.504Z,2948
2023-01-09T14:09:31.538Z,2832
2023-01-09T14:10:35.278Z,2492
2023-01-09T14:11:39.118Z,2304
2023-01-09T14:12:42.459Z,2076
2023-01-09T14:13:46.133Z,1776
2023-01-09T14:14:49.608Z,1768
2023-01-09T14:15:52.981Z,1888
2023-01-09T14:16:56.975Z,2032
2023-01-09T14:18:00.208Z,2320
2023-01-09T14:19:03.735Z,2876
2023-01-09T14:20:06.692Z,3376
2023-01-09T14:21:09.887Z,3508
2023-01-09T14:22:13.302Z,3148
2023-01-09T14:23:31.662Z,2532
2023-01-09T14:25:08.717Z,2000
2023-01-09T14:26:12.099Z,1864
2023-01-09T14:27:15.766Z,1832
2023-01-09T14:28:18.929Z,1848
2023-01-09T14:29:21.692Z,1824
2023-01-09T14:30:25.747Z,1784
2023-01-09T14:31:29.932Z,1720
2023-01-09T14:32:33.843Z,1652
2023-01-09T14:33:36.101Z,1628
2023-01-09T14:34:39.380Z,1616
2023-01-09T14:35:41.808Z,1620
2023-01-09T14:36:45.582Z,1612
2023-01-09T14:37:49.308Z,1548
2023-01-09T14:38:52.867Z,1440
2023-01-09T14:39:55.894Z,1388
2023-01-09T14:40:59.004Z,1288
2023-01-09T14:42:01.549Z,1236
2023-01-09T14:43:04.407Z,1176
2023-01-09T14:44:07.860Z,1220
2023-01-09T14:45:11.234Z,1316
2023-01-09T14:46:14.633Z,1376
2023-01-09T14:47:18.083Z,1328
2023-01-09T14:48:21.500Z,1264